Hauptseite
METAR-TAF:

METAR-TAF

Flughäfen :

Flughafen Santander

Santander, Spanien

Breite: 43-26N, Länge: 003-49W, Höhe: 6 m

Beobachtung

Neuester Wetterbericht von vor 34 Minuten, um 13:00 UTC
Wind 5 kt aus Nordost, variierte zwischen Nord/Nordwest und Ost
Temperatur 18°C
Luftfeuchtigkeit 68%
Luftdruck 1007 hPa
Sichtweite 10 km oder mehr
Leicht bewölkt in der Höhe von 7900 ft

METAR: LEXJ 151300Z 04005KT 340V100 9999 FEW079 18/12 Q1007

Zeit: 15:34 (13:34 UTC)

Prognose

Neuester Wetterbericht von vor 5 Stunden und 34 Minuten, um 08:00 UTC
Gültige Prognose vom 15 um 09 UTC bis 16 um 09 UTC
Wind 7 kt aus Süd
Sichtweite 10 km oder mehr
Leicht bewölkt in der Höhe von 4500 ft
Wahrscheinlichkeit 30% :
Zeitweise
vom 15 um 12 UTC bis 15 um 15 UTC
Wind 10 kt aus Nordost

TAF: LEXJ 150800Z 1509/1609 19007KT 9999 FEW045 TX20/1513Z TN11/1606Z PROB30 TEMPO 1512/1515 05010KT

Wetterbeobachtungen und Prognosen von mehr als 4000 Flughäfen (METAR und TAF Bericht).

Die verfügbaren Stationen werden durch gelbe und rote Markierungen auf der Karte dargestellt.

Führen Sie die Maus auf sie, um den Namen der Station zu sehen.

Darauf klicken, um die Beobachtung von Wetterbeobachtungen und Prognosen zu sehen.

Um die Karte zu ändern : klicken Sie auf den grünen Tasten mit einem schwarzen Kreuz Zum Vergrößern, auf den grünen Button mit einem Gedankenstrich zu verkleinern, oder auf die grünen Pfeile für benachbarte Karten.


METAR-TAF: